Terminal Aerodrome Forecast
Issued by NWS

Home | Current Version | Previous Version | Text Only | Print | Product List | Glossary On
Versions: 1 2 3 4 5 6 7 8 9 10 11 12 13 14 15 16 17 18
734
FTUS46 KMTR 311120
TAFMRY
TAF
KMRY 311120Z 3112/0112 00000KT 1SM BR OVC002
     FM311630 24005KT P6SM FEW004
     FM312000 28009KT P6SM SKC
     FM010300 29005KT P6SM BKN009
     FM010600 22003KT 5SM BR OVC005=

USA.gov is the U.S. government's official web portal to all federal, state and local government web resources and services.